Time;durP1;ratioP1;P1;durP2;ratioP2;P2;SDS_P1;SDS_P2;PMS_P1;PMS_P2;Temp;Humidity;BMP_temperature;BMP_pressure;BME280_temperature;BME280_humidity;BME280_pressure;Samples;Min_cycle;Max_cycle;Signal;HPM_P1;HPM_P2
2022/08/12 00:43:28;;;;;;;;;;;;;;;;;;;;;
2022/08/12 00:48:44;;;;;;;3.10;2.90;;;17.70;56.70;;;;;;4950315;28;20038;-63
2022/08/12 00:51:10;;;;;;;3.13;2.92;;;17.70;56.70;;;;;;4946430;28;20182;-64
2022/08/12 00:53:38;;;;;;;3.58;3.20;;;17.70;57.10;;;;;;4953235;28;20114;-63
2022/08/12 00:56:07;;;;;;;3.40;3.20;;;17.60;57.20;;;;;;4948602;28;20058;-63
2022/08/12 00:58:38;;;;;;;4.32;2.90;;;17.50;57.60;;;;;;4949143;28;20039;-65
2022/08/12 01:01:19;;;;;;;5.82;3.03;;;17.40;57.90;;;;;;4947462;28;20034;-63
2022/08/12 01:12:19;;;;;;;17.98;3.42;;;17.20;58.10;;;;;;4943082;28;20143;-63
2022/08/12 01:14:45;;;;;;;4.00;3.17;;;17.20;58.00;;;;;;4950047;28;20511;-64
2022/08/12 01:17:10;;;;;;;5.05;3.22;;;17.20;58.10;;;;;;4949940;28;20416;-63
2022/08/12 01:19:39;;;;;;;3.00;2.70;;;17.10;58.30;;;;;;4951163;28;20030;-62
2022/08/12 01:22:29;;;;;;;2.83;2.63;;;17.10;58.20;;;;;;4948139;28;20046;-65
2022/08/12 01:25:06;;;;;;;4.07;2.20;;;17.20;58.70;;;;;;4950104;28;20062;-63
2022/08/12 01:27:37;;;;;;;2.38;2.17;;;17.20;58.20;;;;;;4951741;28;20062;-64
2022/08/12 01:30:07;;;;;;;2.72;2.38;;;17.20;58.00;;;;;;4949336;28;20450;-63
2022/08/12 01:32:36;;;;;;;2.53;2.33;;;17.30;58.10;;;;;;4950549;28;20114;-64
2022/08/12 01:35:14;;;;;;;2.75;2.35;;;17.40;57.80;;;;;;4950445;28;20035;-61
2022/08/12 01:37:45;;;;;;;3.53;2.47;;;17.40;58.00;;;;;;4950730;28;20582;-63
2022/08/12 01:40:15;;;;;;;2.33;2.13;;;17.40;57.90;;;;;;4952095;28;20043;-63
2022/08/12 01:42:47;;;;;;;3.17;2.45;;;17.40;57.70;;;;;;4951696;28;20035;-63
2022/08/12 01:45:16;;;;;;;2.50;2.20;;;17.50;57.60;;;;;;4953871;28;20081;-63
2022/08/12 01:48:16;;;;;;;7.30;2.38;;;17.50;57.40;;;;;;4954799;28;20081;-64
2022/08/12 01:51:03;;;;;;;2.25;2.00;;;17.60;57.80;;;;;;4951950;28;20388;-61
2022/08/12 01:53:56;;;;;;;2.72;2.28;;;17.60;57.20;;;;;;4949284;28;20059;-63
2022/08/12 01:56:25;;;;;;;3.47;2.45;;;17.60;57.40;;;;;;4946903;28;20038;-64
2022/08/12 02:01:40;;;;;;;2.55;2.30;;;17.70;57.10;;;;;;4947714;28;20098;-63
2022/08/12 02:13:20;;;;;;;2.88;2.30;;;17.80;57.00;;;;;;4949108;28;20046;-64
2022/08/12 02:16:01;;;;;;;2.70;2.35;;;17.80;56.90;;;;;;4948454;28;20555;-64
2022/08/12 02:18:47;;;;;;;4.93;2.15;;;17.80;56.80;;;;;;4947078;28;20400;-64
2022/08/12 02:21:45;;;;;;;2.63;2.15;;;17.80;57.10;;;;;;4946355;28;20170;-64
2022/08/12 02:24:14;;;;;;;2.60;2.20;;;17.80;57.20;;;;;;4928021;28;20711;-64
2022/08/12 02:26:53;;;;;;;3.97;2.40;;;17.80;56.90;;;;;;4948542;28;20692;-62
2022/08/12 02:29:30;;;;;;;2.47;2.28;;;17.80;57.20;;;;;;4949662;28;20035;-64
2022/08/12 02:32:00;;;;;;;2.60;2.20;;;17.80;57.00;;;;;;4948008;28;20450;-63
2022/08/12 02:34:27;;;;;;;2.40;2.13;;;17.80;57.10;;;;;;4946743;28;20069;-64
2022/08/12 02:36:59;;;;;;;3.47;2.28;;;17.70;56.90;;;;;;4932760;28;20031;-61
2022/08/12 02:39:32;;;;;;;4.07;2.47;;;17.60;56.90;;;;;;4945268;28;20487;-63
2022/08/12 02:42:03;;;;;;;2.55;2.35;;;17.50;57.30;;;;;;4949862;28;20050;-64
2022/08/12 02:44:41;;;;;;;4.78;2.65;;;17.50;57.40;;;;;;4946804;28;20043;-64
2022/08/12 02:47:08;;;;;;;4.90;2.47;;;17.40;57.40;;;;;;4948195;28;20031;-64
2022/08/12 02:49:54;;;;;;;2.63;2.42;;;17.30;57.40;;;;;;4948716;28;20043;-63
2022/08/12 02:52:21;;;;;;;2.72;2.53;;;17.30;57.90;;;;;;4946532;28;20459;-63
2022/08/12 02:54:52;;;;;;;3.35;2.85;;;17.20;57.70;;;;;;4955916;28;20042;-63
2022/08/12 02:57:21;;;;;;;2.88;2.67;;;17.10;58.00;;;;;;4954789;28;20138;-61
2022/08/12 02:59:50;;;;;;;3.30;3.00;;;17.10;57.90;;;;;;4958602;28;20046;-63
2022/08/12 03:02:20;;;;;;;2.80;2.60;;;17.00;58.20;;;;;;4955161;28;20169;-63
2022/08/12 03:04:55;;;;;;;3.33;2.92;;;17.00;58.30;;;;;;4954948;28;20031;-62
2022/08/12 03:07:30;;;;;;;3.78;2.95;;;16.90;58.40;;;;;;4953545;28;20187;-63
2022/08/12 03:10:08;;;;;;;5.15;2.95;;;16.90;58.60;;;;;;4956258;28;20465;-64
2022/08/12 03:12:41;;;;;;;5.75;2.85;;;16.80;58.70;;;;;;4946949;28;20063;-63
2022/08/12 03:15:22;;;;;;;2.70;2.50;;;16.80;58.60;;;;;;4956906;28;20040;-64
2022/08/12 03:17:54;;;;;;;3.83;2.80;;;16.70;58.50;;;;;;4955644;28;20035;-64
2022/08/12 03:20:21;;;;;;;7.28;3.10;;;16.60;58.70;;;;;;4953671;28;20616;-63
2022/08/12 03:22:57;;;;;;;3.63;3.20;;;16.60;58.70;;;;;;4956583;28;20466;-62
2022/08/12 03:25:33;;;;;;;5.20;3.08;;;16.50;58.90;;;;;;4950368;28;20030;-63
2022/08/12 03:27:59;;;;;;;3.25;2.95;;;16.40;59.20;;;;;;4950616;28;20529;-63
2022/08/12 03:30:27;;;;;;;3.40;3.10;;;16.30;59.10;;;;;;4953712;28;20035;-63
2022/08/12 03:32:54;;;;;;;4.95;2.92;;;16.20;59.40;;;;;;4954249;28;20035;-63
2022/08/12 03:35:29;;;;;;;3.42;3.13;;;16.10;59.50;;;;;;4951090;28;20046;-64
2022/08/12 03:38:15;;;;;;;;;;;16.00;60.20;;;;;;4954485;28;20086;-63
2022/08/12 04:00:50;;;;;;;3.13;2.83;;;15.70;61.40;;;;;;4949652;28;20050;-63
2022/08/12 04:06:00;;;;;;;3.58;3.13;;;15.70;61.20;;;;;;4951539;28;20098;-61
2022/08/12 04:08:29;;;;;;;3.67;2.88;;;15.70;61.00;;;;;;4949989;28;20039;-63
2022/08/12 04:13:42;;;;;;;3.20;2.90;;;15.70;61.50;;;;;;4951278;28;20115;-63
2022/08/12 04:16:09;;;;;;;3.60;3.30;;;15.70;61.10;;;;;;4948362;28;20038;-64
2022/08/12 04:18:41;;;;;;;4.47;3.22;;;15.70;61.40;;;;;;4952005;28;20090;-63
2022/08/12 04:21:10;;;;;;;3.25;2.97;;;15.70;61.70;;;;;;4950226;28;20390;-64
2022/08/12 04:23:37;;;;;;;3.58;3.28;;;15.70;61.40;;;;;;4951943;28;20058;-64
2022/08/12 04:26:08;;;;;;;3.30;3.00;;;15.60;61.50;;;;;;4950743;28;20030;-64
2022/08/12 04:28:34;;;;;;;3.70;3.00;;;15.60;61.90;;;;;;4950236;28;20054;-63
2022/08/12 04:31:00;;;;;;;3.35;3.03;;;15.60;61.80;;;;;;4949590;28;20049;-63
2022/08/12 04:33:32;;;;;;;5.13;3.53;;;15.60;61.70;;;;;;4949290;28;20043;-62
2022/08/12 04:36:00;;;;;;;3.75;2.90;;;15.60;61.90;;;;;;4951408;28;20126;-61
2022/08/12 04:38:30;;;;;;;5.90;3.28;;;15.60;61.80;;;;;;4946183;28;20043;-63
2022/08/12 04:40:59;;;;;;;3.92;2.90;;;15.60;62.00;;;;;;4951221;28;20039;-63
2022/08/12 04:43:24;;;;;;;4.95;3.17;;;15.50;62.20;;;;;;4952795;28;20035;-63
2022/08/12 04:45:51;;;;;;;6.15;3.03;;;15.60;62.20;;;;;;4952238;28;20395;-64
2022/08/12 04:48:18;;;;;;;6.78;3.47;;;15.50;62.00;;;;;;4951248;28;20031;-64
2022/08/12 04:50:44;;;;;;;6.50;3.10;;;15.60;62.30;;;;;;4948799;28;20051;-63
2022/08/12 04:53:13;;;;;;;3.45;3.15;;;15.50;62.40;;;;;;4954438;28;20050;-63
2022/08/12 04:55:41;;;;;;;3.33;2.85;;;15.50;62.50;;;;;;4948837;28;20035;-63
2022/08/12 04:58:10;;;;;;;6.72;3.53;;;15.50;62.70;;;;;;4952559;28;20042;-63
2022/08/12 05:00:37;;;;;;;7.30;3.65;;;15.50;62.90;;;;;;4949388;28;20036;-63
2022/08/12 05:03:04;;;;;;;3.92;3.28;;;15.40;63.00;;;;;;4953033;28;20544;-61
2022/08/12 05:05:31;;;;;;;4.05;3.40;;;15.40;63.10;;;;;;4949447;28;20039;-63
2022/08/12 05:07:57;;;;;;;5.90;3.60;;;15.40;63.30;;;;;;4949453;28;20077;-63
2022/08/12 05:10:23;;;;;;;8.38;3.88;;;15.30;63.40;;;;;;4950078;28;20040;-63
2022/08/12 05:12:55;;;;;;;4.50;3.67;;;15.30;63.80;;;;;;4946544;28;20411;-64
2022/08/12 05:15:21;;;;;;;4.32;3.75;;;15.20;64.10;;;;;;4950270;28;20384;-63
2022/08/12 05:17:47;;;;;;;4.78;3.75;;;15.20;64.20;;;;;;4950851;28;20038;-63
2022/08/12 05:20:20;;;;;;;5.70;4.10;;;15.20;64.50;;;;;;4953963;28;20093;-63
2022/08/12 05:22:46;;;;;;;4.50;3.92;;;15.10;64.80;;;;;;4947603;28;20121;-63
2022/08/12 05:25:14;;;;;;;5.72;3.88;;;15.10;65.00;;;;;;4949552;28;20493;-63
2022/08/12 05:27:39;;;;;;;5.30;3.75;;;15.10;65.40;;;;;;4949514;28;20285;-63
2022/08/12 05:30:09;;;;;;;7.32;3.72;;;15.20;65.70;;;;;;4933864;28;20039;-63
2022/08/12 05:32:35;;;;;;;6.65;4.30;;;15.20;65.90;;;;;;4952898;28;20066;-63
2022/08/12 05:35:05;;;;;;;5.47;3.60;;;15.20;66.20;;;;;;4955361;28;20418;-64
2022/08/12 05:37:42;;;;;;;6.18;3.97;;;15.30;66.10;;;;;;4949286;28;20155;-64
2022/08/12 05:40:12;;;;;;;7.20;3.72;;;15.40;66.20;;;;;;4946858;28;20042;-64
2022/08/12 05:42:41;;;;;;;8.15;3.78;;;15.50;66.20;;;;;;4950005;28;20118;-63
2022/08/12 05:45:16;;;;;;;5.68;3.22;;;15.60;66.20;;;;;;4949370;28;20140;-64
2022/08/12 05:47:41;;;;;;;;;;;15.70;65.70;;;;;;4947998;28;20036;-63
2022/08/12 05:50:07;;;;;;;4.13;2.85;;;15.90;66.00;;;;;;4952527;28;20428;-64
2022/08/12 05:52:33;;;;;;;3.45;3.15;;;16.00;64.90;;;;;;4952380;28;20039;-64
2022/08/12 05:54:58;;;;;;;6.22;3.38;;;16.10;64.80;;;;;;4951539;28;20371;-62
2022/08/12 05:57:24;;;;;;;5.40;3.45;;;16.20;64.70;;;;;;4952887;28;20040;-63
2022/08/12 05:59:49;;;;;;;4.60;3.40;;;16.30;65.20;;;;;;4954596;28;20039;-63
2022/08/12 06:02:15;;;;;;;6.50;3.22;;;16.40;64.00;;;;;;4951978;28;20114;-63
2022/08/12 06:04:44;;;;;;;7.93;3.40;;;16.50;63.80;;;;;;4951805;28;20169;-63
2022/08/12 06:07:11;;;;;;;5.10;3.40;;;16.70;63.70;;;;;;4954616;28;20047;-63
2022/08/12 06:09:37;;;;;;;3.92;3.58;;;16.80;63.40;;;;;;4949774;28;20042;-62
2022/08/12 06:12:03;;;;;;;5.45;3.60;;;16.90;63.30;;;;;;4947662;28;20065;-63
2022/08/12 06:14:29;;;;;;;4.10;3.70;;;17.00;63.20;;;;;;4950657;28;20450;-63
2022/08/12 06:16:58;;;;;;;3.33;3.05;;;17.10;63.30;;;;;;4948331;28;20108;-63
2022/08/12 06:19:24;;;;;;;4.40;2.63;;;17.20;63.00;;;;;;4940207;28;20051;-63
2022/08/12 06:21:50;;;;;;;4.00;3.20;;;17.30;62.90;;;;;;4945878;28;20035;-61
2022/08/12 06:24:23;;;;;;;5.15;3.17;;;17.40;62.70;;;;;;4943502;28;20149;-61
2022/08/12 06:26:49;;;;;;;4.20;2.90;;;17.40;62.50;;;;;;4944964;28;20035;-63
2022/08/12 06:29:18;;;;;;;5.25;2.92;;;17.60;62.70;;;;;;4946180;28;20046;-63
2022/08/12 06:31:47;;;;;;;6.13;2.85;;;17.60;62.30;;;;;;4942689;28;20050;-62
2022/08/12 06:34:13;;;;;;;2.90;2.70;;;17.80;62.20;;;;;;4939900;28;20079;-62
2022/08/12 06:36:39;;;;;;;3.78;2.78;;;17.80;62.20;;;;;;4940113;28;20610;-64
2022/08/12 06:39:08;;;;;;;3.58;2.80;;;17.90;61.90;;;;;;4941134;28;20039;-62
2022/08/12 06:44:21;;;;;;;4.15;2.70;;;18.10;62.40;;;;;;4945218;28;20110;-62
2022/08/12 06:46:46;;;;;;;5.00;2.53;;;18.20;61.00;;;;;;4944134;28;20043;-61
2022/08/12 06:49:12;;;;;;;5.97;2.83;;;18.30;60.90;;;;;;4945196;28;20527;-62
2022/08/12 06:51:38;;;;;;;6.28;2.70;;;18.40;60.70;;;;;;4943994;28;20050;-61
2022/08/12 06:54:06;;;;;;;3.00;2.75;;;18.50;60.40;;;;;;4943531;28;20529;-61
2022/08/12 06:56:33;;;;;;;4.03;2.90;;;18.60;60.50;;;;;;4941708;28;20047;-62
2022/08/12 06:59:01;;;;;;;4.22;3.00;;;18.70;60.50;;;;;;4942352;28;20050;-61
2022/08/12 07:01:28;;;;;;;2.67;2.47;;;18.80;60.30;;;;;;4940300;28;20129;-63
2022/08/12 07:03:57;;;;;;;5.38;2.60;;;18.90;60.20;;;;;;4944659;28;20048;-62
2022/08/12 07:06:28;;;;;;;4.30;2.85;;;18.90;60.00;;;;;;4945528;28;20049;-63
2022/08/12 07:08:53;;;;;;;2.55;2.35;;;19.10;59.50;;;;;;4939922;28;20077;-63
2022/08/12 07:11:19;;;;;;;2.53;2.33;;;19.10;59.60;;;;;;4938672;28;20549;-61
2022/08/12 07:13:52;;;;;;;2.83;2.25;;;19.20;59.20;;;;;;4944237;28;20046;-63
2022/08/12 07:16:19;;;;;;;2.40;2.20;;;19.40;58.90;;;;;;4942065;28;20406;-62
2022/08/12 07:18:49;;;;;;;2.20;2.00;;;19.40;58.60;;;;;;4947642;28;20043;-61
2022/08/12 07:21:18;;;;;;;2.55;2.35;;;19.50;58.40;;;;;;4945532;28;20039;-63
2022/08/12 07:23:48;;;;;;;4.57;2.33;;;19.60;58.30;;;;;;4945665;28;20045;-63
2022/08/12 07:26:18;;;;;;;2.53;2.03;;;19.70;58.00;;;;;;4945250;28;20039;-60
2022/08/12 07:28:55;;;;;;;2.33;2.13;;;19.80;57.80;;;;;;4949560;28;20133;-63
2022/08/12 07:31:21;;;;;;;3.22;1.98;;;19.90;57.50;;;;;;4944969;28;20039;-62
2022/08/12 07:33:55;;;;;;;2.38;1.95;;;20.00;57.50;;;;;;4942894;28;20801;-63
2022/08/12 07:36:21;;;;;;;2.75;1.83;;;20.10;57.20;;;;;;4947994;28;20530;-61
2022/08/12 07:38:50;;;;;;;3.15;2.03;;;20.20;57.00;;;;;;4940413;28;20679;-63
2022/08/12 07:41:28;;;;;;;2.10;1.90;;;20.30;56.60;;;;;;4947265;28;20062;-63
2022/08/12 07:44:03;;;;;;;4.68;1.88;;;20.40;56.40;;;;;;4946529;28;20042;-62
2022/08/12 07:46:40;;;;;;;2.42;1.88;;;20.60;56.00;;;;;;4945398;28;20051;-63
2022/08/12 07:49:17;;;;;;;2.72;1.63;;;20.60;56.10;;;;;;4948330;28;20036;-62
2022/08/12 07:51:45;;;;;;;1.92;1.67;;;20.80;55.60;;;;;;4945628;28;20038;-64
2022/08/12 07:54:13;;;;;;;2.88;1.92;;;20.90;55.60;;;;;;4946784;28;20031;-62
2022/08/12 07:56:43;;;;;;;2.38;1.92;;;20.90;55.40;;;;;;4947381;28;20453;-63
2022/08/12 07:59:15;;;;;;;3.90;1.60;;;21.10;55.30;;;;;;4944998;28;20043;-63
2022/08/12 08:01:48;;;;;;;4.85;2.13;;;21.20;55.20;;;;;;4942513;28;20046;-64
2022/08/12 08:06:59;;;;;;;5.03;1.70;;;21.30;55.00;;;;;;4951819;28;20049;-62
2022/08/12 08:09:25;;;;;;;3.03;1.77;;;21.40;54.80;;;;;;4948547;28;20050;-63
2022/08/12 08:14:36;;;;;;;1.77;1.60;;;21.70;54.40;;;;;;4946960;28;20518;-64
2022/08/12 08:17:04;;;;;;;1.95;1.77;;;21.80;54.00;;;;;;4946045;28;20039;-63
2022/08/12 08:19:32;;;;;;;13.20;2.35;;;21.90;53.80;;;;;;4951748;28;20075;-64
2022/08/12 08:22:00;;;;;;;2.88;1.70;;;22.00;53.50;;;;;;4951031;28;20034;-63
2022/08/12 08:24:30;;;;;;;2.00;1.63;;;22.10;53.30;;;;;;4949991;28;20558;-63
2022/08/12 08:27:00;;;;;;;2.22;1.48;;;22.20;53.00;;;;;;4944356;28;20495;-60
2022/08/12 08:29:26;;;;;;;2.35;1.60;;;22.30;52.70;;;;;;4948362;28;20110;-64
2022/08/12 08:31:59;;;;;;;1.50;1.40;;;22.40;52.60;;;;;;4944203;28;20036;-60
2022/08/12 08:34:30;;;;;;;1.70;1.60;;;22.50;52.70;;;;;;4949802;28;20090;-63
2022/08/12 08:36:58;;;;;;;1.60;1.50;;;22.60;52.30;;;;;;4946030;28;20499;-66
2022/08/12 08:39:26;;;;;;;1.65;1.42;;;22.70;52.00;;;;;;4948025;28;20302;-62
2022/08/12 08:44:38;;;;;;;;;;;22.90;51.00;;;;;;4952247;28;20049;-61
2022/08/12 08:47:08;;;;;;;1.70;1.27;;;23.10;51.70;;;;;;4951272;28;20530;-64
2022/08/12 08:49:35;;;;;;;1.95;1.48;;;23.20;50.90;;;;;;4953588;28;20047;-64
2022/08/12 08:52:02;;;;;;;1.88;1.60;;;23.30;50.60;;;;;;4952494;28;20171;-63
2022/08/12 08:54:32;;;;;;;2.40;1.50;;;23.40;50.10;;;;;;4953812;28;20039;-61
2022/08/12 08:57:01;;;;;;;1.83;1.60;;;23.40;49.70;;;;;;4952163;28;20031;-62
2022/08/12 08:59:30;;;;;;;2.67;1.40;;;23.50;48.90;;;;;;4960499;28;20039;-63
2022/08/12 09:01:59;;;;;;;1.40;1.30;;;23.60;49.20;;;;;;4951360;28;20522;-63
2022/08/12 09:04:39;;;;;;;2.47;1.30;;;23.70;49.10;;;;;;4953918;28;20061;-63
2022/08/12 09:07:07;;;;;;;1.42;1.33;;;23.80;48.00;;;;;;4949824;28;20443;-63
2022/08/12 09:09:36;;;;;;;1.50;1.17;;;23.90;48.20;;;;;;4950815;28;20452;-63
2022/08/12 09:14:51;;;;;;;1.30;1.20;;;24.10;48.00;;;;;;4953357;28;20486;-63
2022/08/12 09:17:21;;;;;;;2.10;1.20;;;24.20;47.50;;;;;;4952354;28;20043;-63
2022/08/12 09:19:47;;;;;;;1.50;1.33;;;24.20;47.20;;;;;;4951218;28;20061;-62
2022/08/12 09:22:15;;;;;;;1.80;1.23;;;24.30;47.20;;;;;;4952621;28;20042;-62
2022/08/12 09:24:41;;;;;;;1.83;1.30;;;24.40;46.40;;;;;;4948303;28;20409;-63
2022/08/12 09:27:07;;;;;;;2.00;1.50;;;24.50;46.60;;;;;;4949695;28;20034;-61
2022/08/12 09:29:33;;;;;;;3.08;1.20;;;24.60;46.40;;;;;;4955203;28;20515;-63
2022/08/12 09:32:05;;;;;;;1.48;1.25;;;24.70;46.10;;;;;;4953248;28;20527;-62
2022/08/12 09:34:32;;;;;;;1.92;1.30;;;24.70;45.40;;;;;;4951357;28;20507;-62
2022/08/12 09:37:01;;;;;;;2.25;1.20;;;24.80;46.00;;;;;;4953104;28;20479;-63
2022/08/12 09:39:46;;;;;;;1.55;1.38;;;24.90;45.60;;;;;;4955498;28;20110;-63
2022/08/12 09:45:21;;;;;;;1.65;1.08;;;25.10;45.30;;;;;;4953844;28;20034;-63
2022/08/12 09:47:49;;;;;;;1.50;1.40;;;25.20;44.10;;;;;;4951094;28;20073;-63
2022/08/12 09:50:24;;;;;;;2.85;1.10;;;25.30;44.30;;;;;;4953025;28;20130;-63
2022/08/12 09:53:23;;;;;;;0.95;0.95;;;25.40;43.80;;;;;;4949969;28;20035;-63
2022/08/12 09:55:53;;;;;;;2.55;1.33;;;25.50;43.10;;;;;;4952870;28;20041;-61
2022/08/12 09:58:40;;;;;;;1.33;1.15;;;25.60;43.80;;;;;;4955051;28;20035;-63
2022/08/12 10:01:06;;;;;;;1.45;1.30;;;25.70;43.40;;;;;;4952599;28;20058;-63
2022/08/12 10:03:35;;;;;;;2.75;1.20;;;25.80;43.60;;;;;;4951939;28;20146;-62
2022/08/12 10:06:05;;;;;;;1.70;1.30;;;25.80;43.00;;;;;;4951124;28;20114;-63
2022/08/12 10:08:33;;;;;;;5.15;1.50;;;25.90;42.70;;;;;;4952104;28;20054;-63
2022/08/12 10:13:51;;;;;;;1.60;1.23;;;26.00;42.30;;;;;;4958656;28;20094;-61
2022/08/12 10:16:24;;;;;;;1.75;1.48;;;26.10;42.20;;;;;;4952814;28;20041;-63
2022/08/12 10:18:58;;;;;;;1.77;1.08;;;26.10;41.40;;;;;;4957187;28;20495;-61
2022/08/12 10:21:29;;;;;;;3.20;1.25;;;26.20;41.20;;;;;;4956950;28;20062;-63
2022/08/12 10:23:57;;;;;;;1.58;1.40;;;26.20;41.40;;;;;;4958425;28;20525;-63
2022/08/12 10:29:35;;;;;;;1.73;0.98;;;26.30;41.20;;;;;;4958923;28;20042;-63
2022/08/12 10:32:05;;;;;;;1.45;1.10;;;26.40;41.10;;;;;;4957973;28;20043;-64
2022/08/12 10:34:31;;;;;;;6.15;0.98;;;26.50;41.00;;;;;;4956613;28;20495;-63
2022/08/12 10:36:58;;;;;;;2.22;1.00;;;26.50;40.60;;;;;;4955449;28;20329;-63
2022/08/12 10:39:36;;;;;;;1.95;0.98;;;26.50;40.00;;;;;;4958086;28;20173;-63
2022/08/12 10:44:59;;;;;;;2.83;0.98;;;26.50;39.70;;;;;;4957283;28;20058;-63
2022/08/12 10:47:51;;;;;;;1.08;0.98;;;26.50;40.00;;;;;;4957068;28;20066;-62
2022/08/12 10:50:23;;;;;;;1.48;1.00;;;26.60;40.10;;;;;;4950970;28;20141;-63
2022/08/12 10:52:51;;;;;;;0.90;0.75;;;26.60;39.30;;;;;;4952486;28;20443;-62
2022/08/12 10:55:17;;;;;;;1.25;1.15;;;26.60;39.50;;;;;;4952304;28;20361;-63
2022/08/12 10:57:42;;;;;;;2.47;1.10;;;26.70;39.60;;;;;;4955038;28;20062;-64
2022/08/12 11:00:09;;;;;;;1.13;0.73;;;26.70;40.00;;;;;;4950789;28;20047;-69
2022/08/12 11:02:46;;;;;;;1.80;0.93;;;26.70;39.90;;;;;;4956611;28;20924;-69
2022/08/12 11:05:20;;;;;;;1.00;1.00;;;26.80;39.40;;;;;;4958855;28;20106;-68
2022/08/12 11:07:49;;;;;;;1.20;1.10;;;26.80;39.00;;;;;;4937474;28;20035;-69
2022/08/12 11:10:15;;;;;;;0.77;0.77;;;26.80;39.40;;;;;;4926857;28;20407;-68
2022/08/12 11:12:48;;;;;;;1.58;1.00;;;26.90;39.30;;;;;;4952473;28;20036;-67
2022/08/12 11:15:13;;;;;;;3.70;1.00;;;26.90;38.70;;;;;;4958328;28;20106;-67
2022/08/12 11:17:42;;;;;;;0.95;0.85;;;26.90;39.60;;;;;;4963050;28;20095;-68
2022/08/12 11:20:08;;;;;;;1.08;1.08;;;27.00;39.10;;;;;;4962544;28;20046;-67
2022/08/12 11:22:35;;;;;;;1.55;1.02;;;27.00;39.10;;;;;;4960051;28;20529;-67
2022/08/12 11:25:06;;;;;;;1.10;1.00;;;27.00;38.80;;;;;;4959876;28;20031;-66
2022/08/12 11:27:35;;;;;;;1.77;1.00;;;27.10;39.00;;;;;;4960532;28;20270;-62
2022/08/12 11:30:00;;;;;;;2.63;1.00;;;27.10;38.40;;;;;;4962602;28;20031;-68
2022/08/12 11:32:28;;;;;;;1.95;1.20;;;27.10;38.50;;;;;;4959006;28;20031;-68
2022/08/12 11:34:54;;;;;;;2.25;1.10;;;27.10;38.30;;;;;;4962423;28;20039;-67
2022/08/12 11:37:20;;;;;;;2.05;0.90;;;27.20;39.70;;;;;;4956249;28;20066;-63
2022/08/12 11:39:46;;;;;;;1.33;1.05;;;27.20;38.90;;;;;;4956852;28;20039;-69
2022/08/12 11:42:11;;;;;;;1.85;1.13;;;27.20;38.90;;;;;;4958019;28;20035;-69
2022/08/12 11:44:37;;;;;;;3.15;1.00;;;27.30;38.80;;;;;;4956892;28;20410;-69
2022/08/12 11:47:03;;;;;;;1.25;1.02;;;27.30;38.90;;;;;;4957015;28;20469;-69
2022/08/12 11:49:28;;;;;;;1.10;1.00;;;27.30;38.60;;;;;;4954067;28;20043;-64
2022/08/12 11:51:54;;;;;;;2.92;1.13;;;27.30;38.50;;;;;;4936316;28;20043;-64
2022/08/12 11:54:24;;;;;;;1.90;1.23;;;27.20;39.00;;;;;;4951644;28;20098;-64
2022/08/12 11:56:50;;;;;;;2.38;1.23;;;27.20;38.90;;;;;;4948047;28;20122;-64
2022/08/12 11:59:15;;;;;;;0.82;0.82;;;27.20;38.70;;;;;;4947446;28;20051;-64
2022/08/12 12:01:42;;;;;;;1.35;0.95;;;27.30;39.60;;;;;;4953399;28;20058;-63
2022/08/12 12:04:15;;;;;;;1.30;0.98;;;27.30;39.40;;;;;;4941105;28;20051;-64
2022/08/12 12:06:41;;;;;;;1.20;1.10;;;27.30;39.50;;;;;;4947932;28;20483;-63
2022/08/12 12:09:06;;;;;;;2.15;1.00;;;27.30;39.10;;;;;;4952277;28;20071;-64
2022/08/12 12:11:32;;;;;;;1.05;0.95;;;27.40;38.50;;;;;;4946277;28;20036;-65
2022/08/12 12:14:03;;;;;;;2.88;0.80;;;27.40;38.70;;;;;;4960517;28;20106;-64
2022/08/12 12:16:29;;;;;;;1.05;0.93;;;27.50;38.00;;;;;;4947880;28;20035;-64
2022/08/12 12:18:54;;;;;;;1.55;0.88;;;27.50;38.00;;;;;;4950432;28;20042;-64
2022/08/12 12:21:20;;;;;;;1.75;0.90;;;27.50;37.70;;;;;;4935451;28;20035;-64
2022/08/12 12:23:54;;;;;;;1.05;0.95;;;27.60;37.90;;;;;;4951272;28;21038;-64
2022/08/12 12:26:22;;;;;;;1.55;0.80;;;27.60;37.70;;;;;;4951701;28;20518;-65
2022/08/12 12:28:51;;;;;;;3.33;0.90;;;27.70;37.30;;;;;;4949570;28;20047;-64
2022/08/12 12:31:17;;;;;;;2.92;1.00;;;27.70;37.10;;;;;;4947317;28;20047;-63
2022/08/12 12:33:42;;;;;;;1.13;0.90;;;27.70;37.00;;;;;;4953224;28;20033;-64
2022/08/12 12:36:08;;;;;;;1.00;0.90;;;27.70;37.10;;;;;;4945081;28;20522;-64
2022/08/12 12:38:36;;;;;;;1.02;0.88;;;27.70;36.90;;;;;;4944695;28;20058;-63
2022/08/12 12:41:02;;;;;;;2.35;0.80;;;27.70;37.20;;;;;;4942983;28;20220;-63
2022/08/12 12:43:30;;;;;;;3.25;0.90;;;27.70;36.70;;;;;;4945466;28;20054;-64
2022/08/12 12:46:07;;;;;;;4.00;0.95;;;27.70;36.50;;;;;;4946907;28;20043;-62
2022/08/12 12:48:35;;;;;;;2.25;0.93;;;27.70;36.50;;;;;;4952814;28;20122;-64
2022/08/12 12:51:16;;;;;;;1.17;0.90;;;27.70;36.10;;;;;;4947874;28;20090;-63
2022/08/12 12:54:05;;;;;;;1.60;0.90;;;27.70;36.60;;;;;;4954150;28;20452;-62
2022/08/12 12:56:30;;;;;;;0.80;0.80;;;27.60;35.80;;;;;;4951426;28;20045;-63
2022/08/12 12:58:59;;;;;;;1.38;0.90;;;27.70;36.60;;;;;;4957440;28;20039;-63
2022/08/12 13:01:25;;;;;;;1.25;1.15;;;27.70;36.60;;;;;;4951979;28;20042;-64
2022/08/12 13:03:57;;;;;;;2.85;1.00;;;27.80;36.80;;;;;;4951567;28;20190;-62
2022/08/12 13:06:28;;;;;;;1.08;0.82;;;27.80;36.50;;;;;;4953072;28;20043;-64
2022/08/12 13:09:03;;;;;;;1.20;0.80;;;27.80;36.40;;;;;;4951542;28;20046;-63
2022/08/12 13:11:28;;;;;;;;;;;27.80;36.10;;;;;;4945917;28;20130;-63
2022/08/12 13:13:58;;;;;;;2.20;0.90;;;27.90;37.50;;;;;;4953869;28;20005;-64
2022/08/12 13:16:29;;;;;;;1.20;0.98;;;27.90;36.50;;;;;;4952281;28;20050;-63
2022/08/12 13:19:00;;;;;;;1.63;0.93;;;27.90;36.20;;;;;;4955914;28;20039;-64
2022/08/12 13:21:28;;;;;;;1.30;1.10;;;28.00;36.50;;;;;;4953291;28;20510;-61
2022/08/12 13:24:09;;;;;;;2.42;0.90;;;28.00;36.50;;;;;;4955252;28;20562;-63
2022/08/12 13:26:39;;;;;;;4.28;1.00;;;28.00;36.30;;;;;;4952271;28;20035;-62
2022/08/12 13:29:11;;;;;;;1.15;0.98;;;28.10;36.30;;;;;;4951819;28;21145;-63
2022/08/12 13:31:37;;;;;;;3.33;1.00;;;28.10;36.20;;;;;;4956088;28;20047;-64
2022/08/12 13:34:04;;;;;;;0.90;0.80;;;28.20;36.30;;;;;;4951498;28;20054;-63
2022/08/12 13:36:32;;;;;;;2.55;0.80;;;28.20;36.20;;;;;;4957571;28;20940;-63
2022/08/12 13:38:57;;;;;;;0.93;0.82;;;28.20;36.10;;;;;;4953531;28;20565;-63
2022/08/12 13:41:32;;;;;;;2.70;0.88;;;28.20;36.00;;;;;;4956282;28;20050;-63
2022/08/12 13:44:03;;;;;;;1.95;1.00;;;28.20;36.00;;;;;;4955835;28;20387;-63
2022/08/12 13:46:33;;;;;;;0.90;0.90;;;28.10;36.30;;;;;;4952913;28;20506;-64
2022/08/12 13:49:03;;;;;;;1.02;0.90;;;28.10;36.40;;;;;;4953562;28;20400;-64
2022/08/12 13:51:31;;;;;;;3.78;0.90;;;28.10;36.10;;;;;;4954342;28;20081;-64
2022/08/12 13:54:03;;;;;;;0.93;0.93;;;28.10;35.90;;;;;;4953912;28;20415;-64
2022/08/12 13:56:41;;;;;;;0.85;0.80;;;28.10;35.70;;;;;;4944075;28;20039;-63
2022/08/12 13:59:17;;;;;;;2.30;0.70;;;28.10;36.10;;;;;;4950855;28;20035;-62
2022/08/12 14:01:43;;;;;;;3.20;0.80;;;28.10;36.10;;;;;;4943096;28;20078;-64
2022/08/12 14:04:14;;;;;;;3.13;0.95;;;28.00;36.10;;;;;;4951750;28;20046;-64
2022/08/12 14:06:40;;;;;;;3.50;0.82;;;28.00;35.90;;;;;;4950394;28;20435;-63
2022/08/12 14:09:09;;;;;;;1.00;0.90;;;28.00;36.00;;;;;;4943823;28;20121;-64
2022/08/12 14:11:41;;;;;;;0.77;0.73;;;28.00;36.10;;;;;;4947373;28;20117;-64
2022/08/12 14:14:06;;;;;;;1.27;1.02;;;28.10;35.80;;;;;;4949436;28;20070;-63
2022/08/12 14:16:37;;;;;;;1.35;1.10;;;28.10;35.50;;;;;;4949233;28;20089;-63
2022/08/12 14:19:05;;;;;;;1.33;0.90;;;28.10;35.60;;;;;;4949758;28;20038;-64
2022/08/12 14:21:38;;;;;;;1.63;1.00;;;28.10;35.80;;;;;;4951253;28;20054;-64
2022/08/12 14:24:05;;;;;;;1.65;0.80;;;28.10;35.90;;;;;;4946785;28;20499;-64
2022/08/12 14:26:37;;;;;;;0.90;0.90;;;28.10;35.80;;;;;;4951160;28;20039;-63
2022/08/12 14:29:02;;;;;;;4.10;1.08;;;28.10;35.80;;;;;;4941622;28;20365;-64
2022/08/12 14:31:43;;;;;;;3.25;1.10;;;28.20;35.90;;;;;;4949313;28;20154;-63
2022/08/12 14:34:09;;;;;;;1.05;0.80;;;28.20;35.50;;;;;;4950724;28;20043;-63
2022/08/12 14:36:41;;;;;;;3.35;0.93;;;28.20;35.50;;;;;;4944645;28;20046;-62
2022/08/12 14:39:06;;;;;;;3.78;0.88;;;28.20;35.50;;;;;;4947002;28;20454;-63
2022/08/12 14:41:36;;;;;;;1.00;0.80;;;28.20;35.40;;;;;;4946677;28;20043;-64
2022/08/12 14:44:05;;;;;;;1.25;0.90;;;28.20;35.30;;;;;;4949467;28;20038;-64
2022/08/12 14:46:30;;;;;;;3.03;0.60;;;28.20;35.20;;;;;;4946901;28;20035;-63
2022/08/12 14:51:46;;;;;;;2.45;0.75;;;28.10;34.90;;;;;;4946568;28;20051;-64
2022/08/12 14:54:18;;;;;;;0.93;0.75;;;28.10;35.00;;;;;;4955126;28;20035;-64
2022/08/12 14:56:44;;;;;;;0.98;0.73;;;28.10;35.10;;;;;;4953677;28;20093;-64
2022/08/12 15:01:59;;;;;;;2.75;0.70;;;28.10;35.00;;;;;;4945242;28;20096;-64
2022/08/12 15:04:31;;;;;;;1.92;0.70;;;28.10;34.80;;;;;;4949360;28;20161;-64